Flight Track Log - Related Links

Times and Time Zones

All times are in EDT time to prevent confusion due to time zone crossing. See the GUJ333 flight status page for this flight to view local times or setup timezone preferences in your user account.

Time Position Orientation Groundspeed Altitude Reporting Facility
EDT Latitude Longitude Course Direction KTS MPH feet Rate Location/Type
Mon 09:00:00 PM 21.0462 73.6908 21° North  Level Estimated
Mon 09:01:00 PM 21.1351 73.7287 22° Northeast  Level Estimated
Mon 09:02:00 PM 21.2240 73.7666 22° Northeast  Level Estimated
Mon 09:03:00 PM 21.3129 73.8046 22° Northeast  Level Estimated
Mon 09:04:00 PM 21.4017 73.8427 22° Northeast  Level Estimated
Mon 09:05:00 PM 21.4906 73.8808 22° Northeast  Level Estimated
Mon 09:06:00 PM 21.5794 73.9189 22° Northeast  Level Estimated
Mon 09:07:00 PM 21.6683 73.9571 22° Northeast  Level Estimated
Mon 09:08:00 PM 21.7571 73.9953 22° Northeast  Level Estimated
Mon 09:09:00 PM 21.8459 74.0336 22° Northeast  Level Estimated
Mon 09:10:00 PM 21.9347 74.0719 22° Northeast  Level Estimated
Mon 09:11:00 PM 22.0235 74.1103 22° Northeast  Level Estimated
Mon 09:12:00 PM 22.1123 74.1487 22° Northeast  Level Estimated
Mon 09:13:00 PM 22.2011 74.1872 22° Northeast  Level Estimated
Mon 09:14:00 PM 22.2899 74.2257 22° Northeast  Level Estimated
Mon 09:15:00 PM 22.3786 74.2642 22° Northeast  Level Estimated
Mon 09:16:00 PM 22.4674 74.3028 22° Northeast  Level Estimated
Mon 09:17:00 PM 22.5561 74.3415 22° Northeast  Level Estimated
Mon 09:18:00 PM 22.6449 74.3802 22° Northeast  Level Estimated
Mon 09:19:00 PM 22.7336 74.4190 22° Northeast  Level Estimated
Mon 09:20:00 PM 22.8223 74.4578 22° Northeast  Level Estimated
Mon 09:21:00 PM 22.9110 74.4967 22° Northeast  Level Estimated
Mon 09:22:00 PM 22.9997 74.5356 22° Northeast  Level Estimated
Mon 09:23:00 PM 23.0884 74.5745 22° Northeast  Level Estimated
Mon 09:24:00 PM 23.1771 74.6136 22° Northeast  Level Estimated
Mon 09:25:00 PM 23.2658 74.6526 22° Northeast  Level Estimated
Mon 09:26:00 PM 23.3544 74.6917 22° Northeast  Level Estimated
Mon 09:27:00 PM 23.4431 74.7309 22° Northeast  Level Estimated
Mon 09:28:00 PM 23.5317 74.7701 22° Northeast  Level Estimated
Mon 09:29:00 PM 23.6204 74.8094 22° Northeast  Level Estimated
Mon 09:30:00 PM 23.7090 74.8488 22° Northeast  Level Estimated
Mon 09:31:00 PM 23.7976 74.8882 22° Northeast  Level Estimated
Mon 09:32:00 PM 23.8862 74.9276 22° Northeast  Level Estimated
Mon 09:33:00 PM 23.9748 74.9671 22° Northeast  Level Estimated
Mon 09:34:00 PM 24.0634 75.0066 22° Northeast  Level Estimated
Mon 09:35:00 PM 24.1519 75.0462 22° Northeast  Level Estimated
Mon 09:36:00 PM 24.2405 75.0859 22° Northeast  Level Estimated
Mon 09:37:00 PM 24.3290 75.1256 22° Northeast  Level Estimated
Mon 09:38:00 PM 24.4176 75.1654 22° Northeast  Level Estimated
Mon 09:39:00 PM 24.5061 75.2052 22° Northeast  Level Estimated
Mon 09:40:00 PM 24.5946 75.2451 22° Northeast  Level Estimated
Mon 09:41:00 PM 24.6831 75.2850 22° Northeast  Level Estimated
Mon 09:42:00 PM 24.7716 75.3250 22° Northeast  Level Estimated
Mon 09:43:00 PM 24.8601 75.3651 22° Northeast  Level Estimated
Mon 09:44:00 PM 24.9486 75.4052 22° Northeast  Level Estimated
Mon 09:45:00 PM 25.0371 75.4453 22° Northeast  Level Estimated
Mon 09:46:00 PM 25.1255 75.4855 22° Northeast  Level Estimated
Mon 09:47:00 PM 25.2140 75.5258 22° Northeast  Level Estimated
Mon 09:48:00 PM 25.3024 75.5662 22° Northeast  Level Estimated
Mon 09:49:00 PM 25.3908 75.6066 22° Northeast  Level Estimated
Mon 09:50:00 PM 25.4792 75.6470 22° Northeast  Level Estimated
Mon 09:51:00 PM 25.5676 75.6876 22° Northeast  Level Estimated
Mon 09:52:00 PM 25.6560 75.7281 22° Northeast  Level Estimated
Mon 09:53:00 PM 25.7444 75.7688 22° Northeast  Level Estimated
Mon 09:54:00 PM 25.8328 75.8095 23° Northeast  Level Estimated
Mon 09:55:00 PM 25.9211 75.8502 23° Northeast  Level Estimated
Mon 09:56:00 PM 26.0095 75.8911 23° Northeast  Level Estimated
Mon 09:57:00 PM 26.0978 75.9319 23° Northeast  Level Estimated
Mon 09:58:00 PM 26.1861 75.9729 23° Northeast  Level Estimated
Mon 09:59:00 PM 26.2744 76.0139 23° Northeast  Level Estimated
Mon 10:00:00 PM 26.3627 76.0549 23° Northeast  Level Estimated
Mon 10:01:00 PM 26.4510 76.0961 23° Northeast  Level Estimated
Mon 10:02:00 PM 26.5393 76.1373 23° Northeast  Level Estimated
Mon 10:03:00 PM 26.6276 76.1785 23° Northeast  Level Estimated
Mon 10:04:00 PM 26.7158 76.2198 23° Northeast  Level Estimated
Mon 10:05:00 PM 26.8041 76.2612 23° Northeast  Level Estimated
Mon 10:06:00 PM 26.8923 76.3027 23° Northeast  Level Estimated
Mon 10:07:00 PM 26.9805 76.3442 23° Northeast  Level Estimated
Mon 10:08:00 PM 27.0687 76.3858 23° Northeast  Level Estimated
Mon 10:09:00 PM 27.1569 76.4274 23° Northeast  Level Estimated
Mon 10:10:00 PM 27.2451 76.4691 23° Northeast  Level Estimated
Mon 10:11:00 PM 27.3332 76.5109 23° Northeast  Level Estimated
Mon 10:12:00 PM 27.4214 76.5528 23° Northeast  Level Estimated
Mon 10:13:00 PM 27.5095 76.5947 23° Northeast  Level Estimated
Mon 10:14:00 PM 27.5977 76.6367 23° Northeast  Level Estimated
Mon 10:15:00 PM 27.6858 76.6787 23° Northeast  Level Estimated
Mon 10:16:00 PM 27.7739 76.7208 23° Northeast  Level Estimated
Mon 10:17:00 PM 27.8620 76.7630 23° Northeast  Level Estimated
Mon 10:18:00 PM 27.9500 76.8052 23° Northeast  Level Estimated
Mon 10:19:00 PM 28.0381 76.8476 23° Northeast  Level Estimated
Mon 10:20:00 PM 28.1262 76.8900 23° Northeast  Level Estimated
Mon 10:21:00 PM 28.2142 76.9324 23° Northeast  Level Estimated
Mon 10:22:00 PM 28.3022 76.9749 23° Northeast  Level Estimated
Mon 10:23:00 PM 28.3902 77.0175 23° Northeast  Level Estimated
Mon 10:24:00 PM 28.4782 77.0602 23° Northeast  Level Estimated
Mon 10:25:00 PM 28.5662 77.1030 23° Northeast  Level Estimated
Mon 10:26:00 PM 28.5665 77.1031 23° Northeast  Level Estimated
Mon 10:27:00 PM 28.5665 77.1031 270° West  Level Estimated
Mon 10:28:00 PM 28.5665 77.1031 270° West  Level Estimated

Login

Don't have an account? Register now (free) for customized features, flight alerts, and more!